Time;durP1;ratioP1;P1;durP2;ratioP2;P2;SDS_P1;SDS_P2;PMS_P1;PMS_P2;Temp;Humidity;BMP_temperature;BMP_pressure;BME280_temperature;BME280_humidity;BME280_pressure;Samples;Min_cycle;Max_cycle;Signal;HPM_P1;HPM_P2
2022/01/15 00:00:49;;;;;;;31.42;9.80;;;;;;;;;;5024014;28;20049;-57
2022/01/15 00:03:16;;;;;;;26.60;9.45;;;;;;;;;;5017857;28;20140;-54
2022/01/15 00:05:43;;;;;;;30.02;9.60;;;;;;;;;;5022200;28;20136;-54
2022/01/15 00:08:10;;;;;;;26.70;9.60;;;;;;;;;;5017215;28;20061;-56
2022/01/15 00:10:38;;;;;;;28.67;9.30;;;;;;;;;;5023690;28;20057;-57
2022/01/15 00:13:08;;;;;;;25.45;9.27;;;;;;;;;;5016718;28;20061;-51
2022/01/15 00:15:38;;;;;;;33.47;10.80;;;;;;;;;;5023060;28;20057;-57
2022/01/15 00:18:11;;;;;;;32.05;9.65;;;;;;;;;;5013544;28;20049;-58
2022/01/15 00:20:37;;;;;;;22.38;8.00;;;;;;;;;;5023301;28;20100;-56
2022/01/15 00:23:03;;;;;;;29.25;8.13;;;;;;;;;;5020850;28;20045;-50
2022/01/15 00:25:32;;;;;;;30.70;9.35;;;;;;;;;;5026871;28;20046;-56
2022/01/15 00:28:01;;;;;;;31.65;9.93;;;;;;;;;;5017570;28;20041;-58
2022/01/15 00:30:28;;;;;;;31.20;9.63;;;;;;;;;;5023548;28;20066;-59
2022/01/15 00:32:54;;;;;;;27.88;8.65;;;;;;;;;;5036905;28;20060;-55
2022/01/15 00:35:23;;;;;;;36.42;9.73;;;;;;;;;;5026845;28;20057;-56
2022/01/15 00:37:50;;;;;;;28.50;8.63;;;;;;;;;;5020654;28;20077;-53
2022/01/15 00:40:18;;;;;;;34.92;9.05;;;;;;;;;;5026633;28;20061;-53
2022/01/15 00:42:45;;;;;;;30.38;9.18;;;;;;;;;;5021439;28;20072;-55
2022/01/15 00:45:17;;;;;;;28.83;9.40;;;;;;;;;;5027852;28;20081;-58
2022/01/15 00:47:45;;;;;;;25.80;8.85;;;;;;;;;;5026817;28;20062;-58
2022/01/15 00:50:12;;;;;;;26.83;7.88;;;;;;;;;;5023162;28;20065;-58
2022/01/15 00:52:39;;;;;;;25.08;7.60;;;;;;;;;;5026820;28;20103;-53
2022/01/15 00:55:06;;;;;;;28.90;8.15;;;;;;;;;;5003579;28;20108;-58
2022/01/15 00:57:34;;;;;;;23.40;7.85;;;;;;;;;;5007086;28;20070;-57
2022/01/15 01:00:01;;;;;;;30.40;8.83;;;;;;;;;;5017089;28;20061;-56
2022/01/15 01:02:29;;;;;;;32.28;8.55;;;;;;;;;;5026894;28;20060;-56
2022/01/15 01:04:55;;;;;;;33.70;9.93;;;;;;;;;;5017981;28;20064;-59
2022/01/15 01:07:23;;;;;;;24.17;7.18;;;;;;;;;;5005676;28;20069;-56
2022/01/15 01:10:10;;;;;;;23.48;6.75;;;;;;;;;;5000760;28;20108;-54
2022/01/15 01:12:57;;;;;;;16.90;6.25;;;;;;;;;;5009999;28;20046;-60
2022/01/15 01:22:05;;;;;;;;;;;;;;;;;;5059576;28;20051;-60
2022/01/15 01:24:21;;;;;;;23.15;6.47;;;;;;;;;;5056990;28;19924;-59
2022/01/15 01:26:54;;;;;;;26.80;7.00;;;;;;;;;;5062608;28;20059;-61
2022/01/15 01:29:30;;;;;;;28.08;7.60;;;;;;;;;;5063084;28;20052;-60
2022/01/15 01:32:02;;;;;;;17.63;5.80;;;;;;;;;;5062797;28;20140;-60
2022/01/15 01:34:32;;;;;;;28.50;7.50;;;;;;;;;;5063007;28;20102;-60
2022/01/15 01:37:05;;;;;;;30.60;9.02;;;;;;;;;;5055788;28;20147;-56
2022/01/15 01:39:39;;;;;;;28.42;7.60;;;;;;;;;;5062903;28;20064;-55
2022/01/15 01:42:13;;;;;;;22.73;6.88;;;;;;;;;;5057320;28;20094;-60
2022/01/15 01:44:41;;;;;;;26.13;6.90;;;;;;;;;;5062716;28;20095;-59
2022/01/15 01:47:21;;;;;;;22.17;6.53;;;;;;;;;;5056157;28;20067;-55
2022/01/15 01:49:48;;;;;;;25.10;7.65;;;;;;;;;;5062619;28;20056;-59
2022/01/15 01:52:15;;;;;;;26.17;7.10;;;;;;;;;;5055984;28;20075;-57
2022/01/15 01:54:41;;;;;;;27.52;7.50;;;;;;;;;;5062016;28;20060;-60
2022/01/15 01:57:08;;;;;;;21.52;6.53;;;;;;;;;;5055128;28;20060;-59
2022/01/15 01:59:37;;;;;;;23.45;6.97;;;;;;;;;;5062280;28;20077;-56
2022/01/15 02:02:03;;;;;;;23.95;6.43;;;;;;;;;;5056197;28;20049;-54
2022/01/15 02:04:32;;;;;;;26.40;6.50;;;;;;;;;;5062069;28;20057;-58
2022/01/15 02:06:59;;;;;;;25.65;6.47;;;;;;;;;;5048806;28;20049;-60
2022/01/15 02:09:26;;;;;;;21.98;6.90;;;;;;;;;;5058202;28;20052;-55
2022/01/15 02:11:52;;;;;;;24.90;7.25;;;;;;;;;;5039008;28;20045;-58
2022/01/15 02:14:25;;;;;;;28.15;7.95;;;;;;;;;;5061416;28;20053;-58
2022/01/15 02:16:52;;;;;;;28.15;7.60;;;;;;;;;;5088925;28;20060;-57
2022/01/15 02:19:19;;;;;;;27.35;6.95;;;;;;;;;;5061740;28;20053;-59
2022/01/15 02:24:32;;;;;;;21.08;6.40;;;;;;;;;;5062244;28;20056;-59
2022/01/15 02:26:59;;;;;;;21.02;6.40;;;;;;;;;;5043027;28;20055;-58
2022/01/15 02:29:26;;;;;;;24.17;7.18;;;;;;;;;;5041127;28;20119;-57
2022/01/15 02:31:53;;;;;;;22.50;6.90;;;;;;;;;;5031927;28;20053;-57
2022/01/15 02:34:20;;;;;;;24.98;6.50;;;;;;;;;;5049036;28;20057;-60
2022/01/15 02:36:48;;;;;;;25.15;7.13;;;;;;;;;;5066629;28;20067;-60
2022/01/15 02:39:14;;;;;;;22.40;6.75;;;;;;;;;;5061847;28;20056;-58
2022/01/15 02:41:41;;;;;;;16.77;5.30;;;;;;;;;;5051378;28;20060;-60
2022/01/15 02:44:14;;;;;;;21.17;5.68;;;;;;;;;;5043173;28;20057;-57
2022/01/15 02:49:22;;;;;;;18.70;4.90;;;;;;;;;;5041835;28;20053;-57
2022/01/15 02:51:49;;;;;;;16.08;5.30;;;;;;;;;;5047972;28;20081;-58
2022/01/15 02:54:16;;;;;;;23.88;6.07;;;;;;;;;;5042821;28;20106;-56
2022/01/15 02:56:44;;;;;;;19.08;5.60;;;;;;;;;;5047983;28;20073;-56
2022/01/15 02:59:16;;;;;;;19.08;5.28;;;;;;;;;;5041996;28;20075;-57
2022/01/15 03:01:42;;;;;;;20.08;4.82;;;;;;;;;;5045102;28;20076;-54
2022/01/15 03:04:08;;;;;;;24.42;6.10;;;;;;;;;;5042178;28;20049;-57
2022/01/15 03:06:35;;;;;;;23.90;6.35;;;;;;;;;;5047989;28;20110;-56
2022/01/15 03:09:05;;;;;;;22.02;5.97;;;;;;;;;;5041098;28;20116;-51
2022/01/15 03:11:32;;;;;;;18.95;5.68;;;;;;;;;;5047678;28;20111;-55
2022/01/15 03:13:58;;;;;;;15.65;4.97;;;;;;;;;;5041544;28;20138;-52
2022/01/15 03:16:25;;;;;;;22.58;6.82;;;;;;;;;;5047425;28;20544;-53
2022/01/15 03:18:52;;;;;;;18.40;5.10;;;;;;;;;;5041451;28;20056;-52
2022/01/15 03:21:18;;;;;;;15.27;5.15;;;;;;;;;;5048547;28;20084;-54
2022/01/15 03:23:45;;;;;;;17.45;4.95;;;;;;;;;;5041904;28;20052;-48
2022/01/15 03:26:14;;;;;;;17.42;5.13;;;;;;;;;;5041500;28;20064;-57
2022/01/15 03:28:41;;;;;;;16.45;4.68;;;;;;;;;;5046302;28;20056;-52
2022/01/15 03:31:08;;;;;;;17.15;4.57;;;;;;;;;;5041755;28;20164;-57
2022/01/15 03:33:34;;;;;;;12.45;4.25;;;;;;;;;;5047172;28;20055;-55
2022/01/15 03:36:01;;;;;;;15.35;4.60;;;;;;;;;;5042938;28;20061;-58
2022/01/15 03:38:28;;;;;;;15.65;4.57;;;;;;;;;;5046144;28;20061;-54
2022/01/15 03:40:54;;;;;;;17.10;4.70;;;;;;;;;;5041599;28;20150;-53
2022/01/15 03:43:23;;;;;;;17.27;4.70;;;;;;;;;;5046939;28;20052;-57
2022/01/15 03:45:51;;;;;;;16.27;4.45;;;;;;;;;;5041942;28;20063;-55
2022/01/15 03:48:18;;;;;;;;;;;;;;;;;;5045684;28;20060;-54
2022/01/15 03:50:44;;;;;;;16.50;3.70;;;;;;;;;;5042345;28;20275;-56
2022/01/15 03:53:11;;;;;;;16.05;4.40;;;;;;;;;;5046508;28;20072;-58
2022/01/15 03:55:37;;;;;;;16.45;4.60;;;;;;;;;;5057964;28;20041;-58
2022/01/15 03:58:04;;;;;;;18.20;4.78;;;;;;;;;;5063572;28;20056;-57
2022/01/15 04:00:32;;;;;;;14.73;4.03;;;;;;;;;;5058227;28;20045;-61
2022/01/15 04:02:59;;;;;;;15.00;4.13;;;;;;;;;;5047151;28;20059;-56
2022/01/15 04:05:25;;;;;;;15.70;3.90;;;;;;;;;;5047917;28;20130;-59
2022/01/15 04:07:52;;;;;;;10.20;3.17;;;;;;;;;;5061941;28;20045;-60
2022/01/15 04:10:18;;;;;;;14.07;4.32;;;;;;;;;;5066091;28;20056;-59
2022/01/15 04:12:45;;;;;;;12.25;3.85;;;;;;;;;;5041633;28;20056;-57
2022/01/15 04:15:13;;;;;;;13.70;3.80;;;;;;;;;;5046254;28;20084;-53
2022/01/15 04:17:42;;;;;;;14.20;4.45;;;;;;;;;;5074180;28;20067;-57
2022/01/15 04:20:10;;;;;;;13.27;4.25;;;;;;;;;;5046693;28;20055;-58
2022/01/15 04:22:36;;;;;;;17.17;4.93;;;;;;;;;;5041106;28;20057;-58
2022/01/15 04:25:03;;;;;;;12.98;3.60;;;;;;;;;;5045525;28;20056;-50
2022/01/15 04:27:30;;;;;;;10.98;3.15;;;;;;;;;;5040789;28;20076;-57
2022/01/15 04:30:01;;;;;;;19.40;5.90;;;;;;;;;;5046193;28;20044;-55
2022/01/15 04:32:27;;;;;;;18.80;6.03;;;;;;;;;;5040495;28;20056;-55
2022/01/15 04:34:55;;;;;;;14.80;5.20;;;;;;;;;;5062583;28;20076;-53
2022/01/15 04:37:31;;;;;;;15.40;5.50;;;;;;;;;;5058085;28;20053;-56
2022/01/15 04:39:58;;;;;;;14.70;4.75;;;;;;;;;;5046476;28;20053;-52
2022/01/15 04:42:25;;;;;;;15.27;5.40;;;;;;;;;;5040933;28;20572;-57
2022/01/15 04:44:52;;;;;;;15.05;5.68;;;;;;;;;;5045505;28;20098;-52
2022/01/15 04:47:19;;;;;;;16.30;5.20;;;;;;;;;;5039379;28;20118;-57
2022/01/15 04:49:46;;;;;;;21.02;6.28;;;;;;;;;;5062437;28;20114;-53
2022/01/15 04:52:14;;;;;;;16.73;5.32;;;;;;;;;;5062861;28;20061;-53
2022/01/15 04:54:40;;;;;;;17.07;4.33;;;;;;;;;;5039931;28;20045;-57
2022/01/15 04:57:07;;;;;;;17.42;5.47;;;;;;;;;;5045288;28;20303;-53
2022/01/15 04:59:33;;;;;;;13.98;4.20;;;;;;;;;;5056737;28;20055;-60
2022/01/15 05:02:00;;;;;;;15.50;4.45;;;;;;;;;;5042880;28;20053;-57
2022/01/15 05:04:26;;;;;;;21.15;6.00;;;;;;;;;;5040608;28;20064;-54
2022/01/15 05:06:53;;;;;;;15.30;5.00;;;;;;;;;;5063275;28;20110;-55
2022/01/15 05:09:21;;;;;;;18.25;5.22;;;;;;;;;;5039309;28;20514;-55
2022/01/15 05:11:55;;;;;;;15.93;5.28;;;;;;;;;;5046781;28;20559;-53
2022/01/15 05:14:23;;;;;;;15.98;5.20;;;;;;;;;;5035844;28;20056;-56
2022/01/15 05:16:50;;;;;;;16.08;5.30;;;;;;;;;;5045567;28;20110;-57
2022/01/15 05:19:17;;;;;;;14.37;5.17;;;;;;;;;;5040047;28;20103;-57
2022/01/15 05:21:44;;;;;;;16.92;5.93;;;;;;;;;;5045589;28;20160;-59
2022/01/15 05:24:10;;;;;;;14.77;4.80;;;;;;;;;;5040247;28;20118;-55
2022/01/15 05:26:38;;;;;;;17.25;5.70;;;;;;;;;;5045742;28;20110;-55
2022/01/15 05:29:05;;;;;;;23.30;6.28;;;;;;;;;;5056516;28;20103;-57
2022/01/15 05:31:31;;;;;;;13.38;5.07;;;;;;;;;;5045855;28;20053;-60
2022/01/15 05:33:58;;;;;;;20.35;5.90;;;;;;;;;;5043869;28;20056;-58
2022/01/15 05:36:25;;;;;;;17.10;5.82;;;;;;;;;;5044861;28;20067;-61
2022/01/15 05:38:52;;;;;;;19.88;6.70;;;;;;;;;;5048729;28;20049;-60
2022/01/15 05:41:19;;;;;;;21.88;6.43;;;;;;;;;;5040541;28;20168;-52
2022/01/15 05:43:47;;;;;;;16.73;5.80;;;;;;;;;;5062201;28;20049;-56
2022/01/15 05:46:14;;;;;;;17.60;5.90;;;;;;;;;;5049500;28;20300;-50
2022/01/15 05:48:40;;;;;;;13.63;4.68;;;;;;;;;;5045900;28;20052;-58
2022/01/15 05:51:07;;;;;;;19.90;6.05;;;;;;;;;;5039140;28;20144;-57
2022/01/15 05:53:33;;;;;;;17.63;6.20;;;;;;;;;;5045490;28;20094;-55
2022/01/15 05:56:00;;;;;;;16.65;5.70;;;;;;;;;;5039700;28;20059;-57
2022/01/15 05:58:26;;;;;;;22.08;5.68;;;;;;;;;;5061615;28;20154;-53
2022/01/15 06:00:54;;;;;;;17.88;5.97;;;;;;;;;;5057872;28;20080;-55
2022/01/15 06:03:20;;;;;;;18.87;7.53;;;;;;;;;;5049162;28;20088;-55
2022/01/15 06:05:47;;;;;;;25.02;6.43;;;;;;;;;;5045439;28;20098;-51
2022/01/15 06:08:14;;;;;;;18.83;6.05;;;;;;;;;;5048667;28;20056;-55
2022/01/15 06:10:41;;;;;;;16.23;5.28;;;;;;;;;;5060060;28;20056;-57
2022/01/15 06:13:07;;;;;;;19.35;5.88;;;;;;;;;;5048834;28;20048;-53
2022/01/15 06:15:34;;;;;;;14.35;4.43;;;;;;;;;;5045588;28;20080;-57
2022/01/15 06:18:02;;;;;;;16.85;5.82;;;;;;;;;;5062519;28;20049;-53
2022/01/15 06:20:29;;;;;;;18.67;5.45;;;;;;;;;;5064904;28;20063;-51
2022/01/15 06:22:55;;;;;;;14.45;5.72;;;;;;;;;;5059676;28;20083;-55
2022/01/15 06:25:22;;;;;;;22.10;7.15;;;;;;;;;;5048487;28;20057;-56
2022/01/15 06:27:48;;;;;;;13.93;4.45;;;;;;;;;;5041880;28;20061;-55
2022/01/15 06:30:15;;;;;;;18.02;5.93;;;;;;;;;;5048607;28;20083;-52
2022/01/15 06:32:42;;;;;;;17.90;5.85;;;;;;;;;;5044379;28;20045;-57
2022/01/15 06:35:12;;;;;;;18.80;5.65;;;;;;;;;;5032575;28;20118;-51
2022/01/15 06:37:39;;;;;;;16.83;5.13;;;;;;;;;;5042756;28;20048;-57
2022/01/15 06:40:07;;;;;;;17.30;5.97;;;;;;;;;;5048295;28;20144;-59
2022/01/15 06:42:33;;;;;;;17.70;6.40;;;;;;;;;;5042700;28;20148;-52
2022/01/15 06:45:00;;;;;;;24.83;8.10;;;;;;;;;;5048055;28;20081;-54
2022/01/15 06:47:27;;;;;;;16.05;5.50;;;;;;;;;;5059245;28;20076;-52
2022/01/15 06:49:53;;;;;;;14.10;5.65;;;;;;;;;;5048278;28;20053;-57
2022/01/15 06:52:23;;;;;;;22.52;7.28;;;;;;;;;;5059672;28;20075;-55
2022/01/15 06:54:50;;;;;;;19.65;5.85;;;;;;;;;;5048068;28;20123;-56
2022/01/15 06:57:19;;;;;;;15.05;5.65;;;;;;;;;;5043627;28;20148;-53
2022/01/15 06:59:45;;;;;;;17.63;6.43;;;;;;;;;;5048706;28;20126;-55
2022/01/15 07:02:12;;;;;;;17.23;6.07;;;;;;;;;;5049952;28;20123;-58
2022/01/15 07:04:39;;;;;;;18.45;6.30;;;;;;;;;;5046307;28;20076;-58
2022/01/15 07:07:08;;;;;;;23.65;6.70;;;;;;;;;;5067456;28;20068;-56
2022/01/15 07:09:36;;;;;;;19.02;6.93;;;;;;;;;;5043947;28;20049;-54
2022/01/15 07:12:03;;;;;;;16.17;5.50;;;;;;;;;;5047120;28;20057;-55
2022/01/15 07:14:32;;;;;;;21.50;6.80;;;;;;;;;;5041784;28;20309;-57
2022/01/15 07:16:59;;;;;;;16.08;5.47;;;;;;;;;;5057290;28;20072;-53
2022/01/15 07:19:25;;;;;;;17.70;6.00;;;;;;;;;;5058377;28;20084;-54
2022/01/15 07:21:52;;;;;;;22.42;6.50;;;;;;;;;;5047857;28;20142;-56
2022/01/15 07:24:18;;;;;;;17.60;5.88;;;;;;;;;;5041284;28;20098;-58
2022/01/15 07:26:47;;;;;;;18.17;5.78;;;;;;;;;;5047317;28;20080;-59
2022/01/15 07:29:15;;;;;;;14.40;5.47;;;;;;;;;;5058507;28;20414;-53
2022/01/15 07:31:44;;;;;;;19.23;5.82;;;;;;;;;;5063678;28;20107;-53
2022/01/15 07:34:11;;;;;;;21.92;6.80;;;;;;;;;;5042644;28;20055;-55
2022/01/15 07:36:38;;;;;;;20.15;6.93;;;;;;;;;;5064114;28;20049;-57
2022/01/15 07:39:05;;;;;;;22.25;6.47;;;;;;;;;;5058702;28;20113;-56
2022/01/15 07:41:32;;;;;;;23.27;7.00;;;;;;;;;;5047183;28;20049;-53
2022/01/15 07:44:00;;;;;;;16.98;5.80;;;;;;;;;;5043778;28;20056;-56
2022/01/15 07:46:27;;;;;;;24.85;7.78;;;;;;;;;;5044922;28;20060;-56
2022/01/15 07:48:54;;;;;;;20.48;7.25;;;;;;;;;;5046956;28;20412;-58
2022/01/15 07:51:20;;;;;;;25.20;8.73;;;;;;;;;;5041825;28;20140;-57
2022/01/15 07:53:47;;;;;;;22.48;7.45;;;;;;;;;;5046861;28;20056;-55
2022/01/15 07:56:14;;;;;;;17.98;5.78;;;;;;;;;;5054430;28;20056;-57
2022/01/15 07:58:40;;;;;;;26.45;7.60;;;;;;;;;;5047830;28;20125;-58
2022/01/15 08:01:08;;;;;;;22.38;7.07;;;;;;;;;;5040724;28;20053;-51
2022/01/15 08:03:35;;;;;;;21.27;7.20;;;;;;;;;;5047190;28;20079;-54
2022/01/15 08:06:02;;;;;;;25.40;7.53;;;;;;;;;;5042316;28;20343;-52
2022/01/15 08:08:28;;;;;;;22.63;7.32;;;;;;;;;;5046652;28;20112;-51
2022/01/15 08:10:55;;;;;;;19.83;6.40;;;;;;;;;;5040426;28;20060;-55
2022/01/15 08:13:21;;;;;;;26.33;8.73;;;;;;;;;;5048525;28;20056;-50
2022/01/15 08:15:50;;;;;;;18.42;6.88;;;;;;;;;;5042668;28;20103;-58
2022/01/15 08:18:18;;;;;;;18.88;5.88;;;;;;;;;;5049102;28;20060;-57
2022/01/15 08:20:45;;;;;;;23.25;7.28;;;;;;;;;;5041875;28;20055;-56
2022/01/15 08:23:12;;;;;;;18.73;6.20;;;;;;;;;;5048077;28;20048;-54
2022/01/15 08:25:39;;;;;;;23.08;7.72;;;;;;;;;;5042019;28;20106;-54
2022/01/15 08:28:05;;;;;;;25.70;8.60;;;;;;;;;;5046695;28;20130;-55
2022/01/15 08:30:32;;;;;;;29.23;8.05;;;;;;;;;;5079762;28;20061;-55
2022/01/15 08:33:01;;;;;;;27.58;9.15;;;;;;;;;;5040217;28;20081;-55
2022/01/15 08:35:29;;;;;;;20.33;6.45;;;;;;;;;;5046024;28;20061;-54
2022/01/15 08:37:57;;;;;;;21.73;6.88;;;;;;;;;;5039956;28;20140;-56
2022/01/15 08:40:24;;;;;;;23.17;7.20;;;;;;;;;;5046231;28;20319;-53
2022/01/15 08:42:51;;;;;;;29.52;8.13;;;;;;;;;;5040558;28;20052;-54
2022/01/15 08:45:18;;;;;;;26.67;8.43;;;;;;;;;;5045969;28;20056;-56
2022/01/15 08:47:45;;;;;;;26.92;8.05;;;;;;;;;;5038893;28;20056;-53
2022/01/15 08:50:13;;;;;;;27.27;7.68;;;;;;;;;;5046410;28;20077;-54
2022/01/15 08:52:41;;;;;;;27.83;7.40;;;;;;;;;;5040833;28;20056;-58
2022/01/15 08:55:08;;;;;;;26.30;7.15;;;;;;;;;;5046785;28;20618;-58
2022/01/15 08:57:44;;;;;;;26.25;7.43;;;;;;;;;;5042454;28;20146;-59
2022/01/15 09:00:12;;;;;;;25.58;7.30;;;;;;;;;;5038986;28;20057;-61
2022/01/15 09:02:38;;;;;;;23.20;8.20;;;;;;;;;;5041377;28;20051;-59
2022/01/15 09:05:05;;;;;;;21.20;7.53;;;;;;;;;;5045878;28;20049;-56
2022/01/15 09:07:32;;;;;;;27.00;7.72;;;;;;;;;;5040135;28;20052;-54
2022/01/15 09:10:02;;;;;;;25.23;8.10;;;;;;;;;;5045094;28;20045;-54
2022/01/15 09:12:29;;;;;;;24.40;7.05;;;;;;;;;;5041348;28;29658;-55
2022/01/15 09:14:58;;;;;;;24.15;7.07;;;;;;;;;;5045116;28;20113;-54
2022/01/15 09:17:26;;;;;;;23.33;7.78;;;;;;;;;;5044467;28;20049;-53
2022/01/15 09:19:52;;;;;;;18.95;5.40;;;;;;;;;;5037669;28;20064;-58
2022/01/15 09:22:19;;;;;;;33.55;7.68;;;;;;;;;;5045516;28;20374;-52
2022/01/15 09:24:46;;;;;;;24.20;7.90;;;;;;;;;;5039404;28;20048;-58
2022/01/15 09:30:15;;;;;;;21.35;5.97;;;;;;;;;;5039525;28;20071;-52
2022/01/15 09:32:44;;;;;;;22.90;6.82;;;;;;;;;;5044824;28;20056;-56
2022/01/15 09:35:10;;;;;;;;;;;;;;;;;;5040528;28;20056;-54
2022/01/15 09:37:37;;;;;;;20.70;6.07;;;;;;;;;;5049374;28;19960;-56
2022/01/15 09:40:04;;;;;;;19.75;6.25;;;;;;;;;;5042424;28;20114;-52
2022/01/15 09:42:33;;;;;;;20.48;7.13;;;;;;;;;;5048995;28;20057;-56
2022/01/15 09:44:59;;;;;;;;;;;;;;;;;;5043201;28;20064;-59
2022/01/15 09:47:27;;;;;;;21.10;6.32;;;;;;;;;;5048804;28;19932;-54
2022/01/15 09:49:54;;;;;;;31.97;7.17;;;;;;;;;;5042788;28;20080;-55
2022/01/15 09:52:22;;;;;;;20.65;6.63;;;;;;;;;;5049231;28;20306;-53
2022/01/15 09:54:50;;;;;;;21.92;6.53;;;;;;;;;;5043105;28;20049;-58
2022/01/15 09:57:19;;;;;;;15.90;5.20;;;;;;;;;;5048393;28;20056;-53
2022/01/15 09:59:47;;;;;;;22.90;7.15;;;;;;;;;;5041910;28;20060;-55
2022/01/15 10:02:16;;;;;;;22.13;7.13;;;;;;;;;;5034874;28;20077;-55
2022/01/15 10:04:43;;;;;;;25.80;7.10;;;;;;;;;;5024210;28;20053;-56
2022/01/15 10:07:14;;;;;;;23.42;7.30;;;;;;;;;;5031427;28;20080;-59
2022/01/15 10:09:42;;;;;;;22.30;6.53;;;;;;;;;;5040608;28;20701;-57
2022/01/15 10:12:09;;;;;;;23.88;7.53;;;;;;;;;;5032425;28;20132;-55
2022/01/15 10:14:36;;;;;;;25.08;7.57;;;;;;;;;;5028695;28;20053;-60
2022/01/15 10:17:20;;;;;;;17.83;5.35;;;;;;;;;;5040046;28;20053;-55
2022/01/15 10:19:47;;;;;;;24.25;6.60;;;;;;;;;;5048350;28;20053;-59
2022/01/15 10:22:15;;;;;;;18.35;6.18;;;;;;;;;;5043166;28;20053;-56
2022/01/15 10:24:42;;;;;;;21.63;6.40;;;;;;;;;;5062953;28;20057;-57
2022/01/15 10:27:19;;;;;;;20.42;6.22;;;;;;;;;;5043007;28;20044;-52
2022/01/15 10:29:51;;;;;;;22.70;6.90;;;;;;;;;;5049334;28;20048;-58
2022/01/15 10:32:19;;;;;;;19.23;6.45;;;;;;;;;;5043514;28;20083;-56
2022/01/15 10:34:45;;;;;;;24.98;7.45;;;;;;;;;;5064569;28;20056;-52
2022/01/15 10:37:13;;;;;;;22.27;6.68;;;;;;;;;;5041309;28;20052;-51
2022/01/15 10:39:40;;;;;;;25.20;8.32;;;;;;;;;;5047857;28;20099;-56
2022/01/15 10:42:14;;;;;;;29.80;8.88;;;;;;;;;;5058984;28;20060;-57
2022/01/15 10:44:41;;;;;;;22.65;7.95;;;;;;;;;;5056761;28;20067;-58
2022/01/15 10:47:09;;;;;;;27.60;8.05;;;;;;;;;;5042027;28;20053;-60
2022/01/15 10:49:38;;;;;;;27.30;8.00;;;;;;;;;;5048099;28;20084;-60
2022/01/15 10:52:09;;;;;;;25.95;8.65;;;;;;;;;;5041419;28;20121;-59
2022/01/15 10:54:36;;;;;;;26.33;7.95;;;;;;;;;;5058759;28;20063;-55
2022/01/15 10:57:06;;;;;;;32.80;8.20;;;;;;;;;;5059510;28;20059;-56
2022/01/15 10:59:33;;;;;;;27.52;8.43;;;;;;;;;;5047842;28;20049;-59
2022/01/15 11:02:14;;;;;;;23.08;7.03;;;;;;;;;;5044781;28;20368;-59
2022/01/15 11:04:42;;;;;;;29.20;8.98;;;;;;;;;;5028165;28;20113;-60
2022/01/15 11:07:14;;;;;;;33.10;11.48;;;;;;;;;;5027883;28;20053;-60
2022/01/15 11:09:43;;;;;;;25.15;8.52;;;;;;;;;;5046242;28;20365;-61
2022/01/15 11:12:10;;;;;;;25.73;8.05;;;;;;;;;;5047983;28;20049;-58
2022/01/15 11:14:36;;;;;;;20.02;6.75;;;;;;;;;;5041753;28;20057;-59
2022/01/15 11:17:03;;;;;;;20.15;7.60;;;;;;;;;;5064168;28;20053;-57
2022/01/15 11:19:31;;;;;;;22.60;7.10;;;;;;;;;;5035059;28;20056;-59
2022/01/15 11:22:00;;;;;;;23.63;8.18;;;;;;;;;;5028578;28;20057;-60
2022/01/15 11:24:27;;;;;;;19.90;6.90;;;;;;;;;;5037274;28;20490;-59
2022/01/15 11:26:57;;;;;;;26.92;7.90;;;;;;;;;;5049669;28;20090;-60
2022/01/15 11:29:24;;;;;;;27.10;7.95;;;;;;;;;;5042806;28;20151;-60
2022/01/15 11:31:53;;;;;;;22.92;7.78;;;;;;;;;;5047397;28;20169;-56
2022/01/15 11:34:19;;;;;;;;;;;;;;;;;;5042237;28;20159;-57
2022/01/15 11:36:47;;;;;;;20.80;6.22;;;;;;;;;;5047314;28;20027;-58
2022/01/15 11:39:19;;;;;;;25.90;7.90;;;;;;;;;;5041136;28;20045;-57
2022/01/15 11:41:48;;;;;;;25.58;7.85;;;;;;;;;;5046992;28;20053;-58
2022/01/15 11:44:15;;;;;;;19.02;5.50;;;;;;;;;;5041105;28;20087;-57
2022/01/15 11:46:46;;;;;;;19.65;6.32;;;;;;;;;;5046587;28;20052;-57
2022/01/15 11:49:32;;;;;;;19.70;5.80;;;;;;;;;;5040349;28;20049;-58
2022/01/15 11:52:14;;;;;;;20.35;6.63;;;;;;;;;;5028478;28;20139;-58
2022/01/15 11:55:04;;;;;;;23.17;6.97;;;;;;;;;;5039489;28;20140;-59
2022/01/15 11:57:33;;;;;;;20.58;6.57;;;;;;;;;;5046280;28;20115;-55
2022/01/15 12:00:00;;;;;;;15.10;5.10;;;;;;;;;;5040247;28;20056;-55
2022/01/15 12:02:28;;;;;;;24.27;7.90;;;;;;;;;;5046297;28;20056;-56
2022/01/15 12:04:54;;;;;;;21.33;7.13;;;;;;;;;;5040744;28;20106;-56
2022/01/15 12:07:22;;;;;;;18.98;6.78;;;;;;;;;;5046288;28;20060;-59
2022/01/15 12:09:51;;;;;;;26.02;8.65;;;;;;;;;;5040409;28;20059;-60
2022/01/15 12:12:40;;;;;;;21.45;6.35;;;;;;;;;;5036199;28;20056;-58
2022/01/15 12:15:09;;;;;;;18.05;6.25;;;;;;;;;;5004211;28;20054;-53
2022/01/15 12:17:37;;;;;;;29.58;8.27;;;;;;;;;;5040564;28;20060;-55
2022/01/15 12:20:08;;;;;;;23.23;6.80;;;;;;;;;;5042493;28;20055;-55
2022/01/15 12:22:35;;;;;;;24.75;6.85;;;;;;;;;;5047365;28;20052;-56
2022/01/15 12:25:04;;;;;;;26.75;8.88;;;;;;;;;;5046808;28;20045;-55
2022/01/15 12:27:31;;;;;;;25.77;7.75;;;;;;;;;;5040174;28;20060;-56
2022/01/15 12:30:00;;;;;;;25.52;8.55;;;;;;;;;;5062791;28;20056;-57
2022/01/15 12:32:27;;;;;;;21.35;7.45;;;;;;;;;;5040768;28;20049;-54
2022/01/15 12:34:54;;;;;;;29.80;9.85;;;;;;;;;;5047337;28;20059;-56
2022/01/15 12:37:20;;;;;;;19.77;6.95;;;;;;;;;;5041847;28;20084;-57
2022/01/15 12:39:48;;;;;;;30.00;8.32;;;;;;;;;;5063754;28;20057;-55
2022/01/15 12:42:17;;;;;;;32.65;10.38;;;;;;;;;;5041928;28;20056;-56
2022/01/15 12:44:45;;;;;;;25.63;8.10;;;;;;;;;;5046088;28;20076;-56
2022/01/15 12:47:12;;;;;;;25.00;7.63;;;;;;;;;;5040759;28;20056;-57
2022/01/15 12:49:40;;;;;;;26.42;8.00;;;;;;;;;;5046237;28;20057;-59
2022/01/15 12:52:13;;;;;;;26.70;8.32;;;;;;;;;;5040587;28;20045;-57
2022/01/15 12:54:40;;;;;;;26.23;8.82;;;;;;;;;;5065609;28;20052;-55
2022/01/15 12:57:07;;;;;;;30.35;8.68;;;;;;;;;;5041685;28;20056;-56
2022/01/15 12:59:38;;;;;;;20.58;6.63;;;;;;;;;;5046652;28;20077;-57
2022/01/15 13:02:04;;;;;;;28.80;9.48;;;;;;;;;;5056913;28;20076;-56
2022/01/15 13:04:31;;;;;;;33.95;9.85;;;;;;;;;;5062504;28;20134;-54
2022/01/15 13:07:00;;;;;;;32.72;9.10;;;;;;;;;;5040133;28;20111;-57
2022/01/15 13:09:39;;;;;;;31.50;9.75;;;;;;;;;;5062181;28;20140;-55
2022/01/15 13:12:07;;;;;;;27.15;9.02;;;;;;;;;;5057777;28;20363;-53
2022/01/15 13:14:37;;;;;;;29.83;10.07;;;;;;;;;;5060765;28;20049;-54
2022/01/15 13:17:04;;;;;;;31.80;11.18;;;;;;;;;;5044045;28;20303;-54
2022/01/15 13:19:36;;;;;;;31.95;10.65;;;;;;;;;;5039914;28;20144;-57
2022/01/15 13:22:03;;;;;;;22.88;8.30;;;;;;;;;;5044715;28;20136;-58
2022/01/15 13:24:30;;;;;;;25.55;7.68;;;;;;;;;;5040065;28;20085;-55
2022/01/15 13:26:58;;;;;;;35.75;10.55;;;;;;;;;;5045596;28;20057;-58
2022/01/15 13:29:36;;;;;;;24.60;8.45;;;;;;;;;;5039575;28;20052;-56
2022/01/15 13:32:06;;;;;;;23.57;7.23;;;;;;;;;;5045199;28;20052;-55
2022/01/15 13:34:34;;;;;;;23.33;8.18;;;;;;;;;;5039788;28;20299;-53
2022/01/15 13:37:01;;;;;;;;;;;;;;;;;;5045403;28;20072;-57
2022/01/15 13:39:28;;;;;;;22.65;8.20;;;;;;;;;;5039430;28;19936;-55
2022/01/15 13:41:55;;;;;;;19.13;6.93;;;;;;;;;;5045222;28;20099;-58
2022/01/15 13:44:21;;;;;;;21.23;7.50;;;;;;;;;;5039768;28;20072;-54
2022/01/15 13:46:50;;;;;;;19.00;7.03;;;;;;;;;;5045433;28;20057;-58
2022/01/15 13:49:19;;;;;;;20.08;7.22;;;;;;;;;;5040003;28;20064;-53
2022/01/15 13:54:33;;;;;;;18.20;7.13;;;;;;;;;;5030466;28;20064;-55
2022/01/15 13:57:03;;;;;;;21.48;7.82;;;;;;;;;;5045076;28;20107;-55
2022/01/15 13:59:29;;;;;;;25.40;7.50;;;;;;;;;;5039718;28;20143;-55
2022/01/15 14:01:57;;;;;;;21.05;7.85;;;;;;;;;;5044850;28;20318;-59
2022/01/15 14:04:27;;;;;;;26.42;8.38;;;;;;;;;;5039347;28;20049;-53
2022/01/15 14:06:54;;;;;;;18.85;6.95;;;;;;;;;;5044382;28;20151;-56
2022/01/15 14:09:20;;;;;;;27.42;8.30;;;;;;;;;;5040911;28;20048;-53
2022/01/15 14:11:57;;;;;;;21.40;8.20;;;;;;;;;;5045411;28;20052;-54
2022/01/15 14:14:24;;;;;;;26.05;8.48;;;;;;;;;;5043716;28;20064;-55
2022/01/15 14:16:52;;;;;;;24.40;7.45;;;;;;;;;;5073369;28;20098;-56
2022/01/15 14:19:49;;;;;;;22.33;6.63;;;;;;;;;;5040159;28;20049;-57
2022/01/15 14:22:19;;;;;;;22.20;7.85;;;;;;;;;;5040522;28;20064;-57
2022/01/15 14:24:47;;;;;;;25.20;8.32;;;;;;;;;;5032686;28;20057;-58
2022/01/15 14:27:19;;;;;;;23.33;8.30;;;;;;;;;;5077722;28;20060;-56
2022/01/15 14:29:45;;;;;;;24.50;7.55;;;;;;;;;;5048790;28;20052;-55
2022/01/15 14:32:12;;;;;;;22.15;7.63;;;;;;;;;;5042431;28;20059;-56
2022/01/15 14:34:38;;;;;;;22.85;7.88;;;;;;;;;;5048590;28;20049;-53
2022/01/15 14:37:07;;;;;;;24.33;9.18;;;;;;;;;;5042536;28;20071;-57
2022/01/15 14:39:35;;;;;;;31.98;9.60;;;;;;;;;;5048432;28;20059;-56
2022/01/15 14:42:01;;;;;;;29.75;8.23;;;;;;;;;;5042178;28;20076;-52
2022/01/15 14:44:29;;;;;;;21.10;7.18;;;;;;;;;;5047620;28;20065;-56
2022/01/15 14:46:56;;;;;;;23.05;8.27;;;;;;;;;;5042611;28;20057;-59
2022/01/15 14:49:22;;;;;;;26.85;9.15;;;;;;;;;;5048461;28;20057;-58
2022/01/15 14:51:49;;;;;;;28.50;8.32;;;;;;;;;;5041609;28;20049;-59
2022/01/15 14:54:15;;;;;;;28.42;9.90;;;;;;;;;;5047862;28;20045;-55